sensor_id;sensor_type;location;lat;lon;timestamp;P1;durP1;ratioP1;P2;durP2;ratioP2
4521;SDS011;2273;48.464;11.926;2022-07-04T00:00:07;6.83;;;2.80;;
4521;SDS011;2273;48.464;11.926;2022-07-04T00:02:34;3.63;;;2.60;;
4521;SDS011;2273;48.464;11.926;2022-07-04T00:05:00;3.17;;;2.40;;
4521;SDS011;2273;48.464;11.926;2022-07-04T00:07:25;5.90;;;3.33;;
4521;SDS011;2273;48.464;11.926;2022-07-04T00:09:51;5.97;;;3.17;;
4521;SDS011;2273;48.464;11.926;2022-07-04T00:12:16;12.27;;;3.37;;
4521;SDS011;2273;48.464;11.926;2022-07-04T00:14:42;5.57;;;2.83;;
4521;SDS011;2273;48.464;11.926;2022-07-04T00:17:07;4.73;;;3.17;;
4521;SDS011;2273;48.464;11.926;2022-07-04T00:19:33;5.53;;;3.70;;
4521;SDS011;2273;48.464;11.926;2022-07-04T00:21:59;5.30;;;3.00;;
4521;SDS011;2273;48.464;11.926;2022-07-04T00:24:24;10.00;;;3.13;;
4521;SDS011;2273;48.464;11.926;2022-07-04T00:26:49;4.03;;;3.10;;
4521;SDS011;2273;48.464;11.926;2022-07-04T00:29:15;8.20;;;2.60;;
4521;SDS011;2273;48.464;11.926;2022-07-04T00:31:41;4.10;;;2.70;;
4521;SDS011;2273;48.464;11.926;2022-07-04T00:34:06;11.57;;;3.50;;
4521;SDS011;2273;48.464;11.926;2022-07-04T00:36:32;7.83;;;3.30;;
4521;SDS011;2273;48.464;11.926;2022-07-04T00:38:57;4.83;;;3.40;;
4521;SDS011;2273;48.464;11.926;2022-07-04T00:41:23;5.33;;;3.20;;
4521;SDS011;2273;48.464;11.926;2022-07-04T00:46:46;4.23;;;2.83;;
4521;SDS011;2273;48.464;11.926;2022-07-04T00:49:12;8.13;;;3.23;;
4521;SDS011;2273;48.464;11.926;2022-07-04T00:51:39;6.40;;;3.47;;
4521;SDS011;2273;48.464;11.926;2022-07-04T00:54:06;4.23;;;3.30;;
4521;SDS011;2273;48.464;11.926;2022-07-04T00:56:35;13.23;;;3.40;;
4521;SDS011;2273;48.464;11.926;2022-07-04T00:59:01;5.40;;;3.63;;
4521;SDS011;2273;48.464;11.926;2022-07-04T01:01:27;6.43;;;3.53;;
4521;SDS011;2273;48.464;11.926;2022-07-04T01:03:53;6.77;;;3.20;;
4521;SDS011;2273;48.464;11.926;2022-07-04T01:06:19;6.80;;;3.50;;
4521;SDS011;2273;48.464;11.926;2022-07-04T01:08:45;5.30;;;3.20;;
4521;SDS011;2273;48.464;11.926;2022-07-04T01:11:11;7.73;;;3.20;;
4521;SDS011;2273;48.464;11.926;2022-07-04T01:13:37;4.30;;;3.20;;
4521;SDS011;2273;48.464;11.926;2022-07-04T01:16:03;7.30;;;3.97;;
4521;SDS011;2273;48.464;11.926;2022-07-04T01:18:29;7.53;;;3.63;;
4521;SDS011;2273;48.464;11.926;2022-07-04T01:20:55;7.10;;;3.00;;
4521;SDS011;2273;48.464;11.926;2022-07-04T01:23:21;4.70;;;3.43;;
4521;SDS011;2273;48.464;11.926;2022-07-04T01:25:46;4.23;;;2.97;;
4521;SDS011;2273;48.464;11.926;2022-07-04T01:28:13;5.00;;;3.20;;
4521;SDS011;2273;48.464;11.926;2022-07-04T01:30:39;10.00;;;3.20;;
4521;SDS011;2273;48.464;11.926;2022-07-04T01:33:04;6.00;;;3.07;;
4521;SDS011;2273;48.464;11.926;2022-07-04T01:35:30;3.53;;;3.00;;
4521;SDS011;2273;48.464;11.926;2022-07-04T01:37:56;3.60;;;3.10;;
4521;SDS011;2273;48.464;11.926;2022-07-04T01:40:22;3.90;;;2.80;;
4521;SDS011;2273;48.464;11.926;2022-07-04T01:42:47;14.77;;;4.90;;
4521;SDS011;2273;48.464;11.926;2022-07-04T01:45:13;4.60;;;3.40;;
4521;SDS011;2273;48.464;11.926;2022-07-04T01:47:38;6.43;;;3.00;;
4521;SDS011;2273;48.464;11.926;2022-07-04T01:50:05;5.90;;;3.00;;
4521;SDS011;2273;48.464;11.926;2022-07-04T01:52:31;7.60;;;3.30;;
4521;SDS011;2273;48.464;11.926;2022-07-04T01:54:57;7.27;;;2.90;;
4521;SDS011;2273;48.464;11.926;2022-07-04T01:57:22;7.80;;;3.00;;
4521;SDS011;2273;48.464;11.926;2022-07-04T01:59:48;5.93;;;3.10;;
4521;SDS011;2273;48.464;11.926;2022-07-04T02:02:34;4.03;;;2.90;;
4521;SDS011;2273;48.464;11.926;2022-07-04T02:05:00;6.60;;;3.57;;
4521;SDS011;2273;48.464;11.926;2022-07-04T02:07:25;5.80;;;3.87;;
4521;SDS011;2273;48.464;11.926;2022-07-04T02:09:51;5.30;;;3.10;;
4521;SDS011;2273;48.464;11.926;2022-07-04T02:12:17;7.43;;;3.70;;
4521;SDS011;2273;48.464;11.926;2022-07-04T02:15:01;7.10;;;3.53;;
4521;SDS011;2273;48.464;11.926;2022-07-04T02:17:26;7.60;;;3.50;;
4521;SDS011;2273;48.464;11.926;2022-07-04T02:19:52;5.90;;;3.70;;
4521;SDS011;2273;48.464;11.926;2022-07-04T02:22:17;10.30;;;3.63;;
4521;SDS011;2273;48.464;11.926;2022-07-04T02:24:43;6.40;;;3.37;;
4521;SDS011;2273;48.464;11.926;2022-07-04T02:27:08;9.27;;;3.30;;
4521;SDS011;2273;48.464;11.926;2022-07-04T02:29:34;3.50;;;2.90;;
4521;SDS011;2273;48.464;11.926;2022-07-04T02:32:00;10.70;;;3.63;;
4521;SDS011;2273;48.464;11.926;2022-07-04T02:34:26;5.37;;;3.33;;
4521;SDS011;2273;48.464;11.926;2022-07-04T02:36:52;7.57;;;3.30;;
4521;SDS011;2273;48.464;11.926;2022-07-04T02:39:17;5.93;;;3.60;;
4521;SDS011;2273;48.464;11.926;2022-07-04T02:41:43;7.37;;;3.17;;
4521;SDS011;2273;48.464;11.926;2022-07-04T02:44:08;5.70;;;3.83;;
4521;SDS011;2273;48.464;11.926;2022-07-04T02:46:34;7.70;;;3.90;;
4521;SDS011;2273;48.464;11.926;2022-07-04T02:49:00;6.20;;;3.80;;
4521;SDS011;2273;48.464;11.926;2022-07-04T02:51:26;7.77;;;4.17;;
4521;SDS011;2273;48.464;11.926;2022-07-04T02:53:51;6.17;;;3.70;;
4521;SDS011;2273;48.464;11.926;2022-07-04T02:56:17;5.53;;;3.40;;
4521;SDS011;2273;48.464;11.926;2022-07-04T02:58:42;4.87;;;3.97;;
4521;SDS011;2273;48.464;11.926;2022-07-04T03:01:08;7.20;;;4.10;;
4521;SDS011;2273;48.464;11.926;2022-07-04T03:03:34;7.27;;;3.90;;
4521;SDS011;2273;48.464;11.926;2022-07-04T03:06:00;9.57;;;5.50;;
4521;SDS011;2273;48.464;11.926;2022-07-04T03:08:26;4.50;;;3.60;;
4521;SDS011;2273;48.464;11.926;2022-07-04T03:10:51;12.83;;;3.60;;
4521;SDS011;2273;48.464;11.926;2022-07-04T03:13:17;7.40;;;4.40;;
4521;SDS011;2273;48.464;11.926;2022-07-04T03:15:43;4.10;;;3.70;;
4521;SDS011;2273;48.464;11.926;2022-07-04T03:18:09;5.50;;;3.60;;
4521;SDS011;2273;48.464;11.926;2022-07-04T03:20:34;7.93;;;3.50;;
4521;SDS011;2273;48.464;11.926;2022-07-04T03:23:00;5.87;;;3.63;;
4521;SDS011;2273;48.464;11.926;2022-07-04T03:25:25;5.87;;;3.27;;
4521;SDS011;2273;48.464;11.926;2022-07-04T03:27:52;4.43;;;3.37;;
4521;SDS011;2273;48.464;11.926;2022-07-04T03:30:17;5.07;;;3.70;;
4521;SDS011;2273;48.464;11.926;2022-07-04T03:32:43;5.00;;;3.57;;
4521;SDS011;2273;48.464;11.926;2022-07-04T03:35:08;3.50;;;3.20;;
4521;SDS011;2273;48.464;11.926;2022-07-04T03:37:34;4.30;;;3.50;;
4521;SDS011;2273;48.464;11.926;2022-07-04T03:39:59;3.50;;;3.20;;
4521;SDS011;2273;48.464;11.926;2022-07-04T03:42:25;6.13;;;3.50;;
4521;SDS011;2273;48.464;11.926;2022-07-04T03:44:50;6.43;;;3.17;;
4521;SDS011;2273;48.464;11.926;2022-07-04T03:47:16;4.17;;;3.40;;
4521;SDS011;2273;48.464;11.926;2022-07-04T03:49:41;11.73;;;3.50;;
4521;SDS011;2273;48.464;11.926;2022-07-04T03:52:07;3.33;;;3.03;;
4521;SDS011;2273;48.464;11.926;2022-07-04T03:54:32;4.17;;;3.40;;
4521;SDS011;2273;48.464;11.926;2022-07-04T03:56:58;5.30;;;3.30;;
4521;SDS011;2273;48.464;11.926;2022-07-04T03:59:23;6.47;;;3.23;;
4521;SDS011;2273;48.464;11.926;2022-07-04T04:01:49;4.00;;;3.20;;
4521;SDS011;2273;48.464;11.926;2022-07-04T04:04:14;5.40;;;3.40;;
4521;SDS011;2273;48.464;11.926;2022-07-04T04:06:58;4.90;;;3.50;;
4521;SDS011;2273;48.464;11.926;2022-07-04T04:09:24;4.47;;;2.97;;
4521;SDS011;2273;48.464;11.926;2022-07-04T04:11:52;4.30;;;3.13;;
4521;SDS011;2273;48.464;11.926;2022-07-04T04:14:18;7.40;;;3.43;;
4521;SDS011;2273;48.464;11.926;2022-07-04T04:16:44;3.97;;;3.00;;
4521;SDS011;2273;48.464;11.926;2022-07-04T04:19:09;6.93;;;3.50;;
4521;SDS011;2273;48.464;11.926;2022-07-04T04:21:35;6.13;;;3.57;;
4521;SDS011;2273;48.464;11.926;2022-07-04T04:24:01;3.47;;;3.17;;
4521;SDS011;2273;48.464;11.926;2022-07-04T04:26:27;5.80;;;3.37;;
4521;SDS011;2273;48.464;11.926;2022-07-04T04:28:53;11.43;;;3.37;;
4521;SDS011;2273;48.464;11.926;2022-07-04T04:31:18;9.50;;;4.03;;
4521;SDS011;2273;48.464;11.926;2022-07-04T04:33:44;5.27;;;3.13;;
4521;SDS011;2273;48.464;11.926;2022-07-04T04:36:09;10.67;;;3.50;;
4521;SDS011;2273;48.464;11.926;2022-07-04T04:38:35;6.83;;;3.60;;
4521;SDS011;2273;48.464;11.926;2022-07-04T04:41:00;3.57;;;3.03;;
4521;SDS011;2273;48.464;11.926;2022-07-04T04:43:26;4.27;;;3.40;;
4521;SDS011;2273;48.464;11.926;2022-07-04T04:45:51;7.20;;;3.10;;
4521;SDS011;2273;48.464;11.926;2022-07-04T04:48:17;4.93;;;3.53;;
4521;SDS011;2273;48.464;11.926;2022-07-04T04:50:42;3.50;;;3.00;;
4521;SDS011;2273;48.464;11.926;2022-07-04T04:53:08;6.90;;;3.83;;
4521;SDS011;2273;48.464;11.926;2022-07-04T04:55:33;19.07;;;3.97;;
4521;SDS011;2273;48.464;11.926;2022-07-04T04:57:59;14.20;;;3.33;;
4521;SDS011;2273;48.464;11.926;2022-07-04T05:00:24;5.73;;;3.30;;
4521;SDS011;2273;48.464;11.926;2022-07-04T05:02:50;8.90;;;3.70;;
4521;SDS011;2273;48.464;11.926;2022-07-04T05:05:16;5.33;;;3.90;;
4521;SDS011;2273;48.464;11.926;2022-07-04T05:07:41;5.63;;;4.03;;
4521;SDS011;2273;48.464;11.926;2022-07-04T05:10:07;5.23;;;3.63;;
4521;SDS011;2273;48.464;11.926;2022-07-04T05:12:33;5.30;;;4.00;;
4521;SDS011;2273;48.464;11.926;2022-07-04T05:14:58;5.83;;;3.50;;
4521;SDS011;2273;48.464;11.926;2022-07-04T05:17:24;5.40;;;3.70;;
4521;SDS011;2273;48.464;11.926;2022-07-04T05:19:49;4.30;;;3.60;;
4521;SDS011;2273;48.464;11.926;2022-07-04T05:22:15;6.70;;;4.20;;
4521;SDS011;2273;48.464;11.926;2022-07-04T05:24:41;7.57;;;3.40;;
4521;SDS011;2273;48.464;11.926;2022-07-04T05:27:07;8.10;;;4.03;;
4521;SDS011;2273;48.464;11.926;2022-07-04T05:29:32;6.30;;;3.73;;
4521;SDS011;2273;48.464;11.926;2022-07-04T05:31:58;5.83;;;3.10;;
4521;SDS011;2273;48.464;11.926;2022-07-04T05:34:23;6.60;;;3.53;;
4521;SDS011;2273;48.464;11.926;2022-07-04T05:36:49;10.20;;;3.07;;
4521;SDS011;2273;48.464;11.926;2022-07-04T05:39:14;5.10;;;3.00;;
4521;SDS011;2273;48.464;11.926;2022-07-04T05:41:40;10.63;;;3.30;;
4521;SDS011;2273;48.464;11.926;2022-07-04T05:44:05;8.80;;;3.87;;
4521;SDS011;2273;48.464;11.926;2022-07-04T05:46:31;7.90;;;3.37;;
4521;SDS011;2273;48.464;11.926;2022-07-04T05:48:56;6.37;;;3.23;;
4521;SDS011;2273;48.464;11.926;2022-07-04T05:51:22;5.23;;;3.50;;
4521;SDS011;2273;48.464;11.926;2022-07-04T05:53:47;4.73;;;3.53;;
4521;SDS011;2273;48.464;11.926;2022-07-04T05:56:13;5.17;;;3.03;;
4521;SDS011;2273;48.464;11.926;2022-07-04T05:58:39;4.87;;;3.40;;
4521;SDS011;2273;48.464;11.926;2022-07-04T06:01:05;4.37;;;3.47;;
4521;SDS011;2273;48.464;11.926;2022-07-04T06:03:31;5.03;;;3.23;;
4521;SDS011;2273;48.464;11.926;2022-07-04T06:05:58;5.77;;;3.43;;
4521;SDS011;2273;48.464;11.926;2022-07-04T06:08:23;10.10;;;3.83;;
4521;SDS011;2273;48.464;11.926;2022-07-04T06:10:49;6.20;;;2.73;;
4521;SDS011;2273;48.464;11.926;2022-07-04T06:13:15;4.30;;;3.07;;
4521;SDS011;2273;48.464;11.926;2022-07-04T06:15:40;5.53;;;3.10;;
4521;SDS011;2273;48.464;11.926;2022-07-04T06:18:06;11.63;;;2.87;;
4521;SDS011;2273;48.464;11.926;2022-07-04T06:20:31;7.50;;;2.93;;
4521;SDS011;2273;48.464;11.926;2022-07-04T06:22:57;6.17;;;3.10;;
4521;SDS011;2273;48.464;11.926;2022-07-04T06:25:22;4.93;;;3.10;;
4521;SDS011;2273;48.464;11.926;2022-07-04T06:27:48;5.83;;;3.10;;
4521;SDS011;2273;48.464;11.926;2022-07-04T06:30:15;5.47;;;3.00;;
4521;SDS011;2273;48.464;11.926;2022-07-04T06:32:45;5.40;;;2.87;;
4521;SDS011;2273;48.464;11.926;2022-07-04T06:35:19;5.10;;;2.97;;
4521;SDS011;2273;48.464;11.926;2022-07-04T06:38:07;4.80;;;2.90;;
4521;SDS011;2273;48.464;11.926;2022-07-04T06:40:33;5.90;;;2.97;;
4521;SDS011;2273;48.464;11.926;2022-07-04T06:42:59;3.50;;;2.70;;
4521;SDS011;2273;48.464;11.926;2022-07-04T06:45:25;5.00;;;2.80;;
4521;SDS011;2273;48.464;11.926;2022-07-04T06:47:51;10.13;;;2.80;;
4521;SDS011;2273;48.464;11.926;2022-07-04T06:50:17;4.07;;;3.10;;
4521;SDS011;2273;48.464;11.926;2022-07-04T06:52:43;6.00;;;2.63;;
4521;SDS011;2273;48.464;11.926;2022-07-04T06:55:08;3.40;;;2.33;;
4521;SDS011;2273;48.464;11.926;2022-07-04T06:57:34;4.40;;;2.53;;
4521;SDS011;2273;48.464;11.926;2022-07-04T07:00:00;3.80;;;2.73;;
4521;SDS011;2273;48.464;11.926;2022-07-04T07:02:25;3.10;;;2.23;;
4521;SDS011;2273;48.464;11.926;2022-07-04T07:04:51;5.60;;;2.37;;
4521;SDS011;2273;48.464;11.926;2022-07-04T07:07:18;4.17;;;2.20;;
4521;SDS011;2273;48.464;11.926;2022-07-04T07:09:44;7.33;;;2.43;;
4521;SDS011;2273;48.464;11.926;2022-07-04T07:12:09;3.63;;;2.50;;
4521;SDS011;2273;48.464;11.926;2022-07-04T07:14:35;4.10;;;2.90;;
4521;SDS011;2273;48.464;11.926;2022-07-04T07:17:00;5.13;;;2.80;;
4521;SDS011;2273;48.464;11.926;2022-07-04T07:19:27;5.47;;;3.10;;
4521;SDS011;2273;48.464;11.926;2022-07-04T07:21:53;4.73;;;3.03;;
4521;SDS011;2273;48.464;11.926;2022-07-04T07:24:18;5.10;;;2.50;;
4521;SDS011;2273;48.464;11.926;2022-07-04T07:26:43;4.23;;;2.63;;
4521;SDS011;2273;48.464;11.926;2022-07-04T07:29:09;8.53;;;2.80;;
4521;SDS011;2273;48.464;11.926;2022-07-04T07:31:34;4.30;;;2.73;;
4521;SDS011;2273;48.464;11.926;2022-07-04T07:34:00;6.83;;;2.97;;
4521;SDS011;2273;48.464;11.926;2022-07-04T07:36:25;4.90;;;2.87;;
4521;SDS011;2273;48.464;11.926;2022-07-04T07:38:50;4.73;;;3.53;;
4521;SDS011;2273;48.464;11.926;2022-07-04T07:41:18;6.53;;;2.80;;
4521;SDS011;2273;48.464;11.926;2022-07-04T07:43:43;4.20;;;3.10;;
4521;SDS011;2273;48.464;11.926;2022-07-04T07:46:09;6.47;;;2.67;;
4521;SDS011;2273;48.464;11.926;2022-07-04T07:48:34;4.33;;;3.17;;
4521;SDS011;2273;48.464;11.926;2022-07-04T07:51:00;4.30;;;2.83;;
4521;SDS011;2273;48.464;11.926;2022-07-04T07:53:25;5.43;;;2.90;;
4521;SDS011;2273;48.464;11.926;2022-07-04T07:55:51;11.93;;;2.90;;
4521;SDS011;2273;48.464;11.926;2022-07-04T07:58:16;5.83;;;3.00;;
4521;SDS011;2273;48.464;11.926;2022-07-04T08:00:42;4.63;;;2.70;;
4521;SDS011;2273;48.464;11.926;2022-07-04T08:03:07;2.90;;;2.60;;
4521;SDS011;2273;48.464;11.926;2022-07-04T08:05:51;3.70;;;2.90;;
4521;SDS011;2273;48.464;11.926;2022-07-04T08:08:17;3.77;;;2.80;;
4521;SDS011;2273;48.464;11.926;2022-07-04T08:10:42;6.00;;;2.93;;
4521;SDS011;2273;48.464;11.926;2022-07-04T08:13:08;4.63;;;2.83;;
4521;SDS011;2273;48.464;11.926;2022-07-04T08:15:33;3.93;;;2.70;;
4521;SDS011;2273;48.464;11.926;2022-07-04T08:17:59;12.90;;;3.00;;
4521;SDS011;2273;48.464;11.926;2022-07-04T08:20:25;4.33;;;2.60;;
4521;SDS011;2273;48.464;11.926;2022-07-04T08:22:50;4.00;;;2.83;;
4521;SDS011;2273;48.464;11.926;2022-07-04T08:25:15;4.37;;;2.93;;
4521;SDS011;2273;48.464;11.926;2022-07-04T08:27:42;3.20;;;2.47;;
4521;SDS011;2273;48.464;11.926;2022-07-04T08:30:08;4.03;;;2.40;;
4521;SDS011;2273;48.464;11.926;2022-07-04T08:32:34;4.63;;;2.50;;
4521;SDS011;2273;48.464;11.926;2022-07-04T08:35:00;3.73;;;2.60;;
4521;SDS011;2273;48.464;11.926;2022-07-04T08:37:27;5.57;;;2.50;;
4521;SDS011;2273;48.464;11.926;2022-07-04T08:39:53;3.80;;;2.70;;
4521;SDS011;2273;48.464;11.926;2022-07-04T08:42:19;3.60;;;2.60;;
4521;SDS011;2273;48.464;11.926;2022-07-04T08:44:50;3.70;;;2.60;;
4521;SDS011;2273;48.464;11.926;2022-07-04T08:47:20;4.27;;;2.37;;
4521;SDS011;2273;48.464;11.926;2022-07-04T08:49:54;3.50;;;2.40;;
4521;SDS011;2273;48.464;11.926;2022-07-04T08:52:30;3.67;;;2.47;;
4521;SDS011;2273;48.464;11.926;2022-07-04T08:55:01;3.00;;;2.30;;
4521;SDS011;2273;48.464;11.926;2022-07-04T08:57:45;2.83;;;2.30;;
4521;SDS011;2273;48.464;11.926;2022-07-04T09:00:30;4.40;;;2.20;;
4521;SDS011;2273;48.464;11.926;2022-07-04T09:02:55;2.70;;;2.20;;
4521;SDS011;2273;48.464;11.926;2022-07-04T09:05:22;9.80;;;2.50;;
4521;SDS011;2273;48.464;11.926;2022-07-04T09:07:47;4.00;;;2.30;;
4521;SDS011;2273;48.464;11.926;2022-07-04T09:10:13;4.53;;;2.50;;
4521;SDS011;2273;48.464;11.926;2022-07-04T09:12:38;18.27;;;2.27;;
4521;SDS011;2273;48.464;11.926;2022-07-04T09:15:04;3.70;;;2.37;;
4521;SDS011;2273;48.464;11.926;2022-07-04T09:17:32;5.70;;;2.57;;
4521;SDS011;2273;48.464;11.926;2022-07-04T09:20:21;9.90;;;2.30;;
4521;SDS011;2273;48.464;11.926;2022-07-04T09:22:48;2.50;;;2.30;;
4521;SDS011;2273;48.464;11.926;2022-07-04T09:25:15;3.70;;;2.60;;
4521;SDS011;2273;48.464;11.926;2022-07-04T09:27:41;2.87;;;2.50;;
4521;SDS011;2273;48.464;11.926;2022-07-04T09:30:10;4.03;;;1.90;;
4521;SDS011;2273;48.464;11.926;2022-07-04T09:35:09;2.40;;;1.97;;
4521;SDS011;2273;48.464;11.926;2022-07-04T09:37:37;4.30;;;2.40;;
4521;SDS011;2273;48.464;11.926;2022-07-04T09:40:04;4.73;;;2.40;;
4521;SDS011;2273;48.464;11.926;2022-07-04T09:42:35;3.23;;;2.23;;
4521;SDS011;2273;48.464;11.926;2022-07-04T09:45:05;8.57;;;2.47;;
4521;SDS011;2273;48.464;11.926;2022-07-04T09:47:31;8.57;;;2.10;;
4521;SDS011;2273;48.464;11.926;2022-07-04T09:49:59;3.10;;;2.30;;
4521;SDS011;2273;48.464;11.926;2022-07-04T09:55:12;4.40;;;2.40;;
4521;SDS011;2273;48.464;11.926;2022-07-04T09:57:38;3.63;;;2.50;;
4521;SDS011;2273;48.464;11.926;2022-07-04T10:00:15;5.77;;;2.00;;
4521;SDS011;2273;48.464;11.926;2022-07-04T10:02:41;3.20;;;2.10;;
4521;SDS011;2273;48.464;11.926;2022-07-04T10:05:07;2.63;;;1.97;;
4521;SDS011;2273;48.464;11.926;2022-07-04T10:07:36;4.07;;;1.97;;
4521;SDS011;2273;48.464;11.926;2022-07-04T10:13:00;5.93;;;1.90;;
4521;SDS011;2273;48.464;11.926;2022-07-04T10:15:31;1.90;;;1.63;;
4521;SDS011;2273;48.464;11.926;2022-07-04T10:17:58;5.27;;;2.23;;
4521;SDS011;2273;48.464;11.926;2022-07-04T10:20:24;4.63;;;1.60;;
4521;SDS011;2273;48.464;11.926;2022-07-04T10:22:50;5.83;;;1.60;;
4521;SDS011;2273;48.464;11.926;2022-07-04T10:25:16;2.07;;;1.40;;
4521;SDS011;2273;48.464;11.926;2022-07-04T10:27:41;2.53;;;1.57;;
4521;SDS011;2273;48.464;11.926;2022-07-04T10:30:09;3.17;;;1.67;;
4521;SDS011;2273;48.464;11.926;2022-07-04T10:32:37;2.87;;;1.90;;
4521;SDS011;2273;48.464;11.926;2022-07-04T10:35:03;2.40;;;1.50;;
4521;SDS011;2273;48.464;11.926;2022-07-04T10:40:48;4.20;;;1.80;;
4521;SDS011;2273;48.464;11.926;2022-07-04T10:48:35;1.83;;;1.30;;
4521;SDS011;2273;48.464;11.926;2022-07-04T10:51:05;2.33;;;1.47;;
4521;SDS011;2273;48.464;11.926;2022-07-04T10:53:31;2.50;;;1.43;;
4521;SDS011;2273;48.464;11.926;2022-07-04T10:58:45;2.87;;;1.60;;
4521;SDS011;2273;48.464;11.926;2022-07-04T11:01:17;4.27;;;1.47;;
4521;SDS011;2273;48.464;11.926;2022-07-04T11:03:46;10.23;;;1.70;;
4521;SDS011;2273;48.464;11.926;2022-07-04T11:07:01;3.30;;;1.60;;
4521;SDS011;2273;48.464;11.926;2022-07-04T11:12:01;3.50;;;1.90;;
4521;SDS011;2273;48.464;11.926;2022-07-04T11:14:29;2.40;;;1.57;;
4521;SDS011;2273;48.464;11.926;2022-07-04T11:17:12;2.57;;;1.43;;
4521;SDS011;2273;48.464;11.926;2022-07-04T11:20:00;2.10;;;1.70;;
4521;SDS011;2273;48.464;11.926;2022-07-04T11:22:25;1.70;;;1.10;;
4521;SDS011;2273;48.464;11.926;2022-07-04T11:24:51;1.50;;;1.37;;
4521;SDS011;2273;48.464;11.926;2022-07-04T11:27:20;3.63;;;1.87;;
4521;SDS011;2273;48.464;11.926;2022-07-04T11:29:50;3.10;;;2.27;;
4521;SDS011;2273;48.464;11.926;2022-07-04T11:32:16;3.00;;;1.40;;
4521;SDS011;2273;48.464;11.926;2022-07-04T11:34:42;4.93;;;1.73;;
4521;SDS011;2273;48.464;11.926;2022-07-04T11:37:07;1.77;;;1.50;;
4521;SDS011;2273;48.464;11.926;2022-07-04T11:39:33;3.40;;;1.80;;
4521;SDS011;2273;48.464;11.926;2022-07-04T11:41:58;2.80;;;1.60;;
4521;SDS011;2273;48.464;11.926;2022-07-04T11:44:43;2.20;;;1.43;;
4521;SDS011;2273;48.464;11.926;2022-07-04T11:50:12;1.30;;;1.20;;
4521;SDS011;2273;48.464;11.926;2022-07-04T11:52:48;4.30;;;1.20;;
4521;SDS011;2273;48.464;11.926;2022-07-04T11:55:18;4.13;;;1.30;;
4521;SDS011;2273;48.464;11.926;2022-07-04T11:57:48;4.57;;;1.80;;
4521;SDS011;2273;48.464;11.926;2022-07-04T12:00:20;3.63;;;1.80;;
4521;SDS011;2273;48.464;11.926;2022-07-04T12:02:49;3.93;;;1.43;;
4521;SDS011;2273;48.464;11.926;2022-07-04T12:05:15;4.70;;;1.77;;
4521;SDS011;2273;48.464;11.926;2022-07-04T12:07:42;2.60;;;1.30;;
4521;SDS011;2273;48.464;11.926;2022-07-04T12:10:09;2.27;;;1.47;;
4521;SDS011;2273;48.464;11.926;2022-07-04T12:12:57;1.77;;;1.50;;
4521;SDS011;2273;48.464;11.926;2022-07-04T12:15:25;1.87;;;1.20;;
4521;SDS011;2273;48.464;11.926;2022-07-04T12:20:50;3.83;;;1.73;;
4521;SDS011;2273;48.464;11.926;2022-07-04T12:23:16;2.27;;;1.57;;
4521;SDS011;2273;48.464;11.926;2022-07-04T12:25:45;1.80;;;1.70;;
4521;SDS011;2273;48.464;11.926;2022-07-04T12:28:12;2.03;;;1.60;;
4521;SDS011;2273;48.464;11.926;2022-07-04T12:33:24;5.27;;;1.90;;
4521;SDS011;2273;48.464;11.926;2022-07-04T12:35:56;2.77;;;1.30;;
4521;SDS011;2273;48.464;11.926;2022-07-04T12:43:21;3.90;;;1.73;;
4521;SDS011;2273;48.464;11.926;2022-07-04T12:45:52;10.63;;;2.10;;
4521;SDS011;2273;48.464;11.926;2022-07-04T12:48:25;5.03;;;1.83;;
4521;SDS011;2273;48.464;11.926;2022-07-04T12:50:52;1.90;;;1.70;;
4521;SDS011;2273;48.464;11.926;2022-07-04T12:53:19;4.47;;;2.10;;
4521;SDS011;2273;48.464;11.926;2022-07-04T12:55:45;2.17;;;1.77;;
4521;SDS011;2273;48.464;11.926;2022-07-04T12:58:12;7.03;;;2.00;;
4521;SDS011;2273;48.464;11.926;2022-07-04T13:00:38;2.43;;;1.60;;
4521;SDS011;2273;48.464;11.926;2022-07-04T13:03:04;2.17;;;1.80;;
4521;SDS011;2273;48.464;11.926;2022-07-04T13:05:30;2.60;;;1.77;;
4521;SDS011;2273;48.464;11.926;2022-07-04T13:07:56;2.53;;;1.80;;
4521;SDS011;2273;48.464;11.926;2022-07-04T13:10:21;2.57;;;1.80;;
4521;SDS011;2273;48.464;11.926;2022-07-04T13:12:47;3.73;;;1.80;;
4521;SDS011;2273;48.464;11.926;2022-07-04T13:15:12;8.80;;;1.80;;
4521;SDS011;2273;48.464;11.926;2022-07-04T13:17:37;2.60;;;1.70;;
4521;SDS011;2273;48.464;11.926;2022-07-04T13:20:03;2.20;;;1.70;;
4521;SDS011;2273;48.464;11.926;2022-07-04T13:22:29;1.60;;;1.50;;
4521;SDS011;2273;48.464;11.926;2022-07-04T13:24:55;2.00;;;1.70;;
4521;SDS011;2273;48.464;11.926;2022-07-04T13:27:21;4.27;;;1.77;;
4521;SDS011;2273;48.464;11.926;2022-07-04T13:29:46;3.37;;;1.90;;
4521;SDS011;2273;48.464;11.926;2022-07-04T13:32:12;1.67;;;1.57;;
4521;SDS011;2273;48.464;11.926;2022-07-04T13:34:37;2.90;;;1.83;;
4521;SDS011;2273;48.464;11.926;2022-07-04T13:37:03;3.93;;;1.70;;
4521;SDS011;2273;48.464;11.926;2022-07-04T13:39:29;3.50;;;2.00;;
4521;SDS011;2273;48.464;11.926;2022-07-04T13:41:54;3.13;;;1.60;;
4521;SDS011;2273;48.464;11.926;2022-07-04T13:44:20;4.03;;;1.70;;
4521;SDS011;2273;48.464;11.926;2022-07-04T13:46:45;3.23;;;1.40;;
4521;SDS011;2273;48.464;11.926;2022-07-04T13:49:11;2.73;;;1.70;;
4521;SDS011;2273;48.464;11.926;2022-07-04T13:51:37;2.80;;;1.70;;
4521;SDS011;2273;48.464;11.926;2022-07-04T13:54:03;3.30;;;1.47;;
4521;SDS011;2273;48.464;11.926;2022-07-04T13:56:28;1.87;;;1.67;;
4521;SDS011;2273;48.464;11.926;2022-07-04T13:58:54;1.90;;;1.33;;
4521;SDS011;2273;48.464;11.926;2022-07-04T14:01:19;3.87;;;1.60;;
4521;SDS011;2273;48.464;11.926;2022-07-04T14:03:46;7.80;;;1.67;;
4521;SDS011;2273;48.464;11.926;2022-07-04T14:06:12;2.40;;;1.70;;
4521;SDS011;2273;48.464;11.926;2022-07-04T14:08:38;1.60;;;1.50;;
4521;SDS011;2273;48.464;11.926;2022-07-04T14:11:03;2.70;;;1.67;;
4521;SDS011;2273;48.464;11.926;2022-07-04T14:13:29;1.80;;;1.47;;
4521;SDS011;2273;48.464;11.926;2022-07-04T14:15:54;2.20;;;1.63;;
4521;SDS011;2273;48.464;11.926;2022-07-04T14:18:20;4.47;;;1.57;;
4521;SDS011;2273;48.464;11.926;2022-07-04T14:20:45;2.30;;;1.97;;
4521;SDS011;2273;48.464;11.926;2022-07-04T14:23:11;2.07;;;1.80;;
4521;SDS011;2273;48.464;11.926;2022-07-04T14:25:37;4.17;;;1.47;;
4521;SDS011;2273;48.464;11.926;2022-07-04T14:28:03;2.70;;;1.50;;
4521;SDS011;2273;48.464;11.926;2022-07-04T14:30:29;6.97;;;1.47;;
4521;SDS011;2273;48.464;11.926;2022-07-04T14:32:54;1.90;;;1.30;;
4521;SDS011;2273;48.464;11.926;2022-07-04T14:35:20;2.13;;;1.60;;
4521;SDS011;2273;48.464;11.926;2022-07-04T14:37:45;1.60;;;1.50;;
4521;SDS011;2273;48.464;11.926;2022-07-04T14:40:11;3.53;;;1.10;;
4521;SDS011;2273;48.464;11.926;2022-07-04T14:42:38;2.83;;;1.50;;
4521;SDS011;2273;48.464;11.926;2022-07-04T14:45:03;2.87;;;1.40;;
4521;SDS011;2273;48.464;11.926;2022-07-04T14:47:29;5.33;;;1.70;;
4521;SDS011;2273;48.464;11.926;2022-07-04T14:49:58;1.57;;;1.47;;
4521;SDS011;2273;48.464;11.926;2022-07-04T14:52:24;3.60;;;1.60;;
4521;SDS011;2273;48.464;11.926;2022-07-04T14:54:49;3.93;;;1.70;;
4521;SDS011;2273;48.464;11.926;2022-07-04T14:57:15;3.83;;;1.70;;
4521;SDS011;2273;48.464;11.926;2022-07-04T14:59:40;1.70;;;1.60;;
4521;SDS011;2273;48.464;11.926;2022-07-04T15:02:06;3.93;;;1.90;;
4521;SDS011;2273;48.464;11.926;2022-07-04T15:04:31;2.70;;;1.87;;
4521;SDS011;2273;48.464;11.926;2022-07-04T15:06:57;4.63;;;1.83;;
4521;SDS011;2273;48.464;11.926;2022-07-04T15:09:22;2.43;;;1.70;;
4521;SDS011;2273;48.464;11.926;2022-07-04T15:11:48;2.20;;;1.60;;
4521;SDS011;2273;48.464;11.926;2022-07-04T15:14:15;3.83;;;1.80;;
4521;SDS011;2273;48.464;11.926;2022-07-04T15:16:41;2.10;;;1.80;;
4521;SDS011;2273;48.464;11.926;2022-07-04T15:19:06;3.50;;;2.10;;
4521;SDS011;2273;48.464;11.926;2022-07-04T15:21:32;2.40;;;2.13;;
4521;SDS011;2273;48.464;11.926;2022-07-04T15:24:16;3.27;;;1.90;;
4521;SDS011;2273;48.464;11.926;2022-07-04T15:26:49;2.13;;;1.90;;
4521;SDS011;2273;48.464;11.926;2022-07-04T15:29:16;3.13;;;1.77;;
4521;SDS011;2273;48.464;11.926;2022-07-04T15:31:43;12.80;;;1.53;;
4521;SDS011;2273;48.464;11.926;2022-07-04T15:34:10;2.80;;;1.60;;
4521;SDS011;2273;48.464;11.926;2022-07-04T15:36:36;2.47;;;1.57;;